Time;durP1;ratioP1;P1;durP2;ratioP2;P2;SDS_P1;SDS_P2;PMS_P1;PMS_P2;Temp;Humidity;BMP_temperature;BMP_pressure;BME280_temperature;BME280_humidity;BME280_pressure;Samples;Min_cycle;Max_cycle;Signal;HPM_P1;HPM_P2
2022/11/04 00:02:00;;;;;;;27.20;10.32;;;;;;;7.74;100.00;99507.21;1676510;85;20995;-81
2022/11/04 00:04:27;;;;;;;16.87;9.80;;;;;;;7.73;100.00;99503.66;1634077;87;21138;-80
2022/11/04 00:06:54;;;;;;;20.32;9.80;;;;;;;7.71;100.00;99511.35;1629901;87;21515;-79
2022/11/04 00:09:27;;;;;;;32.48;10.88;;;;;;;7.70;100.00;99508.36;1642318;86;20915;-80
2022/11/04 00:14:41;;;;;;;15.60;9.33;;;;;;;7.69;100.00;99508.10;1631184;86;21507;-80
2022/11/04 00:17:23;;;;;;;21.75;9.53;;;;;;;7.67;100.00;99512.24;1632324;87;21143;-80
2022/11/04 00:33:24;;;;;;;27.90;10.65;;;;;;;7.60;100.00;99516.16;1680016;85;21131;-78
2022/11/04 00:33:28;;;;;;;24.82;10.55;;;;;;;7.62;100.00;99518.59;1635624;86;20971;-80
2022/11/04 00:35:56;;;;;;;18.10;9.45;;;;;;;7.60;100.00;99517.53;1622366;87;21037;-78
2022/11/04 00:38:23;;;;;;;22.00;10.60;;;;;;;7.60;100.00;99516.16;1624140;87;21492;-84
2022/11/04 00:40:50;;;;;;;21.50;9.35;;;;;;;7.60;100.00;99517.53;1670620;85;20961;-83
2022/11/04 00:43:17;;;;;;;17.17;10.50;;;;;;;7.61;100.00;99510.14;1626207;86;21565;-84
2022/11/04 00:45:44;;;;;;;16.25;9.55;;;;;;;7.61;100.00;99506.05;1631000;87;20968;-85
2022/11/04 00:48:10;;;;;;;21.52;10.08;;;;;;;7.61;100.00;99515.60;1632655;87;20904;-84
2022/11/04 00:50:38;;;;;;;20.15;11.25;;;;;;;7.59;100.00;99511.80;1629348;87;21530;-86
2022/11/04 00:53:04;;;;;;;23.65;10.48;;;;;;;7.61;100.00;99515.60;1629757;87;20924;-87
2022/11/04 00:55:31;;;;;;;26.33;10.45;;;;;;;7.62;100.00;99514.50;1632931;87;21138;-86
2022/11/04 00:57:58;;;;;;;18.55;9.90;;;;;;;7.64;100.00;99508.18;1634322;86;22509;-91
2022/11/04 01:00:25;;;;;;;22.07;10.20;;;;;;;7.63;100.00;99514.20;1630180;87;21002;-87
2022/11/04 01:02:52;;;;;;;25.05;9.85;;;;;;;7.65;100.00;99514.45;1630334;87;20999;-87
2022/11/04 01:05:18;;;;;;;25.80;10.63;;;;;;;7.66;100.00;99507.88;1634049;86;21195;-87
2022/11/04 01:07:45;;;;;;;15.40;9.55;;;;;;;7.66;100.00;99501.05;1633827;86;21143;-86
2022/11/04 01:10:13;;;;;;;26.62;10.25;;;;;;;7.66;100.00;99498.32;1636776;86;21093;-83
2022/11/04 01:12:40;;;;;;;18.77;9.38;;;;;;;7.65;100.00;99499.43;1632277;86;21638;-83
2022/11/04 01:15:08;;;;;;;21.20;10.98;;;;;;;7.63;100.00;99501.09;1630789;86;20999;-82
2022/11/04 01:17:36;;;;;;;28.75;9.90;;;;;;;7.63;100.00;99506.00;1633474;86;21002;-81
2022/11/04 01:20:03;;;;;;;22.55;9.40;;;;;;;7.63;100.00;99498.36;1633463;86;21147;-79
2022/11/04 01:22:30;;;;;;;28.02;11.75;;;;;;;7.62;100.00;99494.81;1633760;86;21050;-78
2022/11/04 01:24:56;;;;;;;20.97;10.98;;;;;;;7.62;100.00;99496.73;1671281;85;21006;-79
2022/11/04 01:27:23;;;;;;;20.40;11.40;;;;;;;7.61;100.00;99493.75;1636345;85;21462;-81
2022/11/04 01:29:50;;;;;;;24.60;11.28;;;;;;;7.59;100.00;99498.14;1635130;87;21066;-80
2022/11/04 01:32:16;;;;;;;18.73;10.32;;;;;;;7.59;100.00;99484.48;1635756;87;21135;-79
2022/11/04 01:34:43;;;;;;;25.50;12.95;;;;;;;7.59;100.00;99491.31;1630883;87;21083;-79
2022/11/04 01:37:09;;;;;;;22.82;11.28;;;;;;;7.57;100.00;99488.63;1673070;85;20994;-79
2022/11/04 01:39:36;;;;;;;21.60;12.10;;;;;;;7.57;100.00;99496.27;1677365;85;21564;-83
2022/11/04 01:42:02;;;;;;;26.02;10.95;;;;;;;7.58;100.00;99494.34;1674669;85;20942;-84
2022/11/04 01:44:52;;;;;;;20.43;10.95;;;;;;;7.57;100.00;99492.72;1675425;85;21282;-85
2022/11/04 01:47:26;;;;;;;25.27;11.03;;;;;;;7.55;100.00;99494.38;1624992;87;21002;-79
2022/11/04 01:50:04;;;;;;;22.75;10.75;;;;;;;7.55;100.00;99488.11;1637049;87;21233;-79
2022/11/04 01:52:47;;;;;;;22.58;9.73;;;;;;;7.55;100.00;99494.38;1629319;86;21023;-79
2022/11/04 01:55:20;;;;;;;40.08;15.43;;;;;;;7.54;100.00;99490.03;1633682;86;20915;-79
2022/11/04 01:57:48;;;;;;;34.10;13.45;;;;;;;7.55;100.00;99490.28;1631440;86;21198;-79
2022/11/04 02:00:16;;;;;;;28.20;11.38;;;;;;;7.54;100.00;99493.31;1630553;87;20927;-79
2022/11/04 02:03:02;;;;;;;23.25;10.93;;;;;;;7.52;100.00;99488.70;1632592;87;20964;-80
2022/11/04 02:05:30;;;;;;;18.55;9.90;;;;;;;7.50;100.00;99486.30;1622889;87;21498;-80
2022/11/04 02:07:57;;;;;;;25.68;11.93;;;;;;;7.49;100.00;99475.67;1635718;87;21015;-80
2022/11/04 02:10:28;;;;;;;19.20;10.40;;;;;;;7.48;100.00;99470.76;1637598;86;21120;-80
2022/11/04 02:12:56;;;;;;;17.17;10.82;;;;;;;7.49;100.00;99473.75;1637807;86;21007;-80
2022/11/04 02:16:01;;;;;;;17.52;9.85;;;;;;;7.48;100.00;99474.05;1633521;87;21565;-80
2022/11/04 02:19:05;;;;;;;19.25;10.32;;;;;;;7.47;100.00;99475.96;1632656;86;20994;-80
2022/11/04 02:21:47;;;;;;;19.12;11.15;;;;;;;7.45;100.00;99474.08;1637646;87;20975;-80
2022/11/04 02:24:24;;;;;;;20.50;10.70;;;;;;;7.46;100.00;99468.88;1637253;86;21243;-81
2022/11/04 02:27:26;;;;;;;23.85;9.80;;;;;;;7.45;100.00;99465.08;1634655;87;21403;-81
2022/11/04 02:30:18;;;;;;;34.27;11.12;;;;;;;7.45;100.00;99468.62;1634485;87;20959;-80
2022/11/04 02:33:05;;;;;;;;;;;;;;;7.43;100.00;99464.56;1605292;88;21050;-78
2022/11/04 02:35:49;;;;;;;18.12;9.73;;;;;;;7.41;100.00;99466.78;1629468;86;20102;-78
2022/11/04 02:38:33;;;;;;;15.65;9.65;;;;;;;7.38;100.00;99466.81;1611141;88;21156;-79
2022/11/04 02:41:14;;;;;;;25.95;11.35;;;;;;;7.39;100.00;99466.27;1631039;87;20959;-80
2022/11/04 02:44:02;;;;;;;16.07;9.53;;;;;;;7.36;100.00;99459.47;1634401;86;20953;-81
2022/11/04 02:46:36;;;;;;;17.90;9.35;;;;;;;7.38;100.00;99460.54;1622947;87;21051;-78
2022/11/04 02:49:13;;;;;;;15.18;8.30;;;;;;;7.38;100.00;99455.08;1674121;85;21597;-79
2022/11/04 02:52:13;;;;;;;22.65;9.83;;;;;;;7.35;100.00;99457.84;1670742;85;21165;-78
2022/11/04 02:54:51;;;;;;;21.87;9.65;;;;;;;7.34;100.00;99451.31;1673111;85;20947;-80
2022/11/04 02:57:22;;;;;;;16.95;9.78;;;;;;;7.34;100.00;99462.24;1695834;83;20975;-79
2022/11/04 02:59:55;;;;;;;16.15;9.88;;;;;;;7.33;100.00;99455.16;1702102;83;20994;-78
2022/11/04 03:02:27;;;;;;;20.70;11.90;;;;;;;7.34;100.00;99462.24;1665930;84;20939;-78
2022/11/04 03:04:55;;;;;;;22.22;9.20;;;;;;;7.35;100.00;99458.41;1661195;85;21484;-78
2022/11/04 03:07:26;;;;;;;22.00;9.60;;;;;;;7.34;100.00;99458.14;1691051;83;20987;-79
2022/11/04 03:09:57;;;;;;;18.87;10.32;;;;;;;7.32;100.00;99449.44;1653105;85;20956;-78
2022/11/04 03:12:29;;;;;;;17.35;9.18;;;;;;;7.30;100.00;99449.73;1637787;86;21551;-78
2022/11/04 03:15:01;;;;;;;17.45;9.48;;;;;;;7.27;100.00;99442.95;1652035;86;21143;-81
2022/11/04 03:17:39;;;;;;;18.35;9.80;;;;;;;7.28;100.00;99444.56;1644046;85;22528;-79
2022/11/04 03:20:11;;;;;;;19.45;10.15;;;;;;;7.27;100.00;99448.41;1665796;85;21023;-79
2022/11/04 03:22:39;;;;;;;19.10;9.45;;;;;;;7.25;100.00;99443.80;1704715;83;20883;-80
2022/11/04 03:25:07;;;;;;;20.57;10.05;;;;;;;7.25;100.00;99441.06;1700582;83;21505;-79
2022/11/04 03:28:00;;;;;;;23.30;9.25;;;;;;;7.25;100.00;99434.23;1700878;83;21042;-78
2022/11/04 03:30:29;;;;;;;24.82;9.50;;;;;;;7.28;100.00;99433.64;1660260;86;21794;-78
2022/11/04 03:33:20;;;;;;;19.62;9.63;;;;;;;7.31;100.00;99437.70;1648827;86;21541;-78
2022/11/04 03:35:47;;;;;;;13.83;8.45;;;;;;;7.29;100.00;99443.45;1704338;83;20987;-77
2022/11/04 03:38:15;;;;;;;19.17;9.45;;;;;;;7.31;100.00;99446.45;1700007;83;21423;-78
2022/11/04 03:40:42;;;;;;;22.45;10.03;;;;;;;7.30;100.00;99445.64;1699257;83;21443;-78
2022/11/04 03:43:15;;;;;;;15.85;9.58;;;;;;;7.32;100.00;99449.44;1706102;83;21107;-79
2022/11/04 03:45:42;;;;;;;16.10;9.38;;;;;;;7.28;100.00;99452.76;1699525;84;20942;-78
2022/11/04 03:48:09;;;;;;;21.65;9.23;;;;;;;7.25;100.00;99448.44;1708252;83;21502;-77
2022/11/04 03:50:42;;;;;;;13.85;8.78;;;;;;;7.20;100.00;99447.97;1704226;83;21476;-78
2022/11/04 03:53:09;;;;;;;16.87;7.62;;;;;;;7.17;100.00;99451.84;1701352;83;20899;-78
2022/11/04 03:55:56;;;;;;;15.50;8.33;;;;;;;7.10;100.00;99448.11;1701237;83;20983;-80
2022/11/04 03:58:45;;;;;;;13.22;8.10;;;;;;;7.06;100.00;99448.99;1659942;85;20916;-79
2022/11/04 04:01:41;;;;;;;22.00;8.95;;;;;;;7.01;100.00;99446.34;1657909;85;20860;-79
2022/11/04 04:04:22;;;;;;;18.35;8.43;;;;;;;7.00;100.00;99456.99;1656819;85;20999;-79
2022/11/04 04:06:50;;;;;;;17.17;8.05;;;;;;;6.97;100.00;99458.39;1662295;85;21527;-79
2022/11/04 04:09:23;;;;;;;18.80;9.20;;;;;;;6.95;100.00;99456.52;1657889;85;21710;-79
2022/11/04 04:12:04;;;;;;;16.50;8.40;;;;;;;6.93;100.00;99459.53;1641788;86;21174;-81
2022/11/04 04:14:52;;;;;;;19.32;8.88;;;;;;;6.90;100.00;99445.70;1649721;86;21489;-81
2022/11/04 04:17:32;;;;;;;16.93;8.73;;;;;;;6.90;100.00;99445.70;1658347;85;20997;-82
2022/11/04 04:20:03;;;;;;;19.50;9.25;;;;;;;6.89;100.00;99444.88;1659028;85;21502;-81
2022/11/04 04:22:34;;;;;;;16.82;9.28;;;;;;;6.89;100.00;99444.07;1659125;85;21071;-83
2022/11/04 04:27:48;;;;;;;19.20;9.38;;;;;;;6.86;100.00;99448.20;1662064;85;21008;-81
2022/11/04 04:30:15;;;;;;;16.05;9.75;;;;;;;6.87;100.00;99447.64;1656325;85;20968;-79
2022/11/04 04:32:46;;;;;;;19.32;9.35;;;;;;;6.86;100.00;99446.83;1699304;83;20983;-78
2022/11/04 04:46:23;;;;;;;14.60;8.93;;;;;;;6.89;100.00;99456.35;1694553;83;21495;-81
2022/11/04 04:48:49;;;;;;;22.62;9.98;;;;;;;6.90;100.00;99453.88;1701765;83;21067;-82
2022/11/04 04:51:16;;;;;;;19.27;9.95;;;;;;;6.92;100.00;99450.30;1701557;83;20987;-82
2022/11/04 04:53:43;;;;;;;16.95;8.35;;;;;;;6.94;100.00;99458.98;1701613;83;21022;-82
2022/11/04 04:56:09;;;;;;;21.07;10.45;;;;;;;6.95;100.00;99464.70;1658472;86;20956;-82
2022/11/04 04:58:38;;;;;;;22.13;10.90;;;;;;;6.96;100.00;99473.14;1700624;83;20995;-81
2022/11/04 05:01:04;;;;;;;17.05;9.45;;;;;;;6.94;100.00;99469.90;1701799;83;21707;-80
2022/11/04 05:03:31;;;;;;;19.00;10.50;;;;;;;6.91;100.00;99473.24;1699870;83;20963;-81
2022/11/04 05:05:59;;;;;;;20.23;10.00;;;;;;;6.88;100.00;99476.00;1701775;83;21006;-82
2022/11/04 05:08:25;;;;;;;21.42;9.45;;;;;;;6.87;100.00;99477.66;1699020;84;21573;-82
2022/11/04 05:10:53;;;;;;;19.73;9.38;;;;;;;6.86;100.00;99478.77;1701349;83;20966;-81
2022/11/04 05:13:25;;;;;;;21.60;10.03;;;;;;;6.87;100.00;99488.02;1630990;86;21219;-83
2022/11/04 05:15:52;;;;;;;;;;;;;;;6.86;100.00;99486.40;1668054;85;21071;-79
2022/11/04 05:18:20;;;;;;;11.80;7.50;;;;;;;6.84;100.00;99480.42;1649636;85;20448;-80
2022/11/04 05:20:47;;;;;;;15.20;8.80;;;;;;;6.84;100.00;99483.70;1633860;85;20944;-80
2022/11/04 05:23:14;;;;;;;20.32;9.48;;;;;;;6.85;100.00;99483.97;1653890;85;20903;-78
2022/11/04 05:25:42;;;;;;;18.30;8.70;;;;;;;6.88;100.00;99479.28;1660771;86;21217;-81
2022/11/04 05:28:09;;;;;;;13.00;8.13;;;;;;;6.90;100.00;99478.44;1666865;85;20908;-80
2022/11/04 05:30:36;;;;;;;15.53;8.53;;;;;;;6.93;100.00;99484.09;1647593;86;21054;-80
2022/11/04 05:33:03;;;;;;;20.43;10.08;;;;;;;6.95;100.00;99491.98;1635724;86;21015;-80
2022/11/04 05:35:30;;;;;;;17.55;8.90;;;;;;;6.92;100.00;99493.42;1619827;88;20985;-82
2022/11/04 05:37:56;;;;;;;24.07;9.65;;;;;;;6.90;100.00;99495.63;1646375;87;21150;-78
2022/11/04 05:40:23;;;;;;;18.02;9.73;;;;;;;6.90;100.00;99496.98;1629075;88;20940;-82
2022/11/04 05:42:49;;;;;;;15.85;8.48;;;;;;;6.91;100.00;99495.88;1628835;88;21558;-82
2022/11/04 05:45:16;;;;;;;19.05;9.68;;;;;;;6.92;100.00;99494.78;1632396;86;21046;-80
2022/11/04 05:47:43;;;;;;;13.28;8.45;;;;;;;6.93;100.00;99499.11;1636116;86;21071;-79
2022/11/04 05:50:10;;;;;;;18.73;8.93;;;;;;;6.91;100.00;99496.44;1653400;85;21189;-80
2022/11/04 05:52:37;;;;;;;20.40;9.95;;;;;;;6.93;100.00;99496.95;1653462;84;21027;-78
2022/11/04 05:55:04;;;;;;;17.92;9.80;;;;;;;6.95;100.00;99495.53;1639530;84;20935;-76
2022/11/04 05:57:30;;;;;;;16.25;9.58;;;;;;;6.96;100.00;99497.70;1622674;88;21558;-81
2022/11/04 05:59:57;;;;;;;17.30;10.03;;;;;;;6.97;100.00;99499.33;1637754;86;21107;-81
2022/11/04 06:02:23;;;;;;;20.90;8.95;;;;;;;6.96;100.00;99501.80;1638545;85;21813;-84
2022/11/04 06:04:51;;;;;;;13.15;9.08;;;;;;;6.98;100.00;99503.69;1632207;86;21043;-83
2022/11/04 06:07:18;;;;;;;21.25;8.93;;;;;;;7.03;100.00;99501.44;1649565;86;21497;-77
2022/11/04 06:09:46;;;;;;;23.77;9.55;;;;;;;7.09;100.00;99505.17;1658755;84;21026;-78
2022/11/04 06:12:14;;;;;;;16.62;8.90;;;;;;;7.16;100.00;99500.72;1640503;86;20915;-75
2022/11/04 06:14:43;;;;;;;19.35;8.30;;;;;;;7.21;100.00;99500.65;1632093;86;21024;-77
2022/11/04 06:17:15;;;;;;;19.23;9.05;;;;;;;7.38;100.00;99502.31;1659574;84;20963;-79
2022/11/04 06:19:41;;;;;;;12.58;8.05;;;;;;;7.50;100.00;99499.95;1658574;84;21023;-77
2022/11/04 06:22:10;;;;;;;19.40;8.85;;;;;;;7.52;100.00;99500.44;1653445;85;21080;-73
2022/11/04 06:24:37;;;;;;;14.95;8.48;;;;;;;7.60;100.00;99504.42;1686879;84;21054;-75
2022/11/04 06:27:05;;;;;;;17.73;8.70;;;;;;;7.62;100.00;99501.64;1689077;83;21239;-83
2022/11/04 06:29:32;;;;;;;14.40;9.10;;;;;;;7.68;100.00;99501.57;1681298;83;21026;-84
2022/11/04 06:31:59;;;;;;;18.48;9.23;;;;;;;7.67;100.00;99496.66;1666853;84;21560;-75
2022/11/04 06:34:26;;;;;;;19.23;10.00;;;;;;;7.61;100.00;99501.95;1672678;84;20939;-79
2022/11/04 06:36:53;;;;;;;17.30;9.43;;;;;;;7.54;100.00;99505.61;1690323;83;20974;-85
2022/11/04 06:39:20;;;;;;;19.65;9.70;;;;;;;7.50;100.00;99507.34;1697654;83;21705;-82
2022/11/04 06:41:46;;;;;;;20.95;8.75;;;;;;;7.45;100.00;99510.95;1695691;83;21008;-77
2022/11/04 06:44:13;;;;;;;15.18;8.35;;;;;;;7.40;100.00;99514.31;1699813;83;21050;-78
2022/11/04 06:46:41;;;;;;;23.75;8.68;;;;;;;7.32;100.00;99516.34;1705237;83;21510;-79
2022/11/04 06:49:14;;;;;;;14.95;8.23;;;;;;;7.27;100.00;99513.13;1707217;83;21000;-77
2022/11/04 06:51:41;;;;;;;20.52;9.55;;;;;;;7.27;100.00;99513.94;1699541;83;21027;-80
2022/11/04 06:54:09;;;;;;;14.18;8.18;;;;;;;7.30;100.00;99518.00;1713892;83;21011;-80
2022/11/04 06:56:37;;;;;;;19.67;8.28;;;;;;;7.30;100.00;99515.27;1713727;83;21488;-88
2022/11/04 06:59:04;;;;;;;20.57;9.78;;;;;;;7.27;100.00;99520.77;1696222;83;20867;-80
2022/11/04 07:01:34;;;;;;;21.12;9.38;;;;;;;7.25;100.00;99520.80;1659170;85;21129;-80
2022/11/04 07:04:01;;;;;;;14.25;7.90;;;;;;;7.24;100.00;99521.91;1656924;85;21146;-81
2022/11/04 07:06:28;;;;;;;13.38;6.28;;;;;;;7.23;100.00;99521.09;1704707;82;21525;-80
2022/11/04 07:08:57;;;;;;;18.45;8.33;;;;;;;7.21;100.00;99519.20;1708758;83;21488;-81
2022/11/04 07:11:26;;;;;;;14.43;7.37;;;;;;;7.18;100.00;99521.72;1701677;83;20947;-79
2022/11/04 07:13:54;;;;;;;15.98;7.97;;;;;;;7.14;100.00;99516.58;1699255;83;20915;-82
2022/11/04 07:16:20;;;;;;;13.30;7.90;;;;;;;7.11;100.00;99511.16;1698134;83;21208;-87
2022/11/04 07:18:48;;;;;;;14.78;8.65;;;;;;;7.13;100.00;99515.77;1681615;83;21091;-85
2022/11/04 07:21:16;;;;;;;17.87;9.18;;;;;;;7.17;100.00;99515.44;1677753;83;33750;-92
2022/11/04 07:23:45;;;;;;;25.05;9.90;;;;;;;7.24;100.00;99519.17;1690359;83;20954;-83
2022/11/04 07:26:21;;;;;;;18.50;9.50;;;;;;;7.25;100.00;99514.78;1694481;83;20947;-83
2022/11/04 07:28:58;;;;;;;14.10;8.35;;;;;;;7.22;100.00;99514.56;1647660;85;21530;-78
2022/11/04 07:31:25;;;;;;;13.00;7.72;;;;;;;7.21;100.00;99513.75;1631423;86;22205;-78
2022/11/04 07:33:55;;;;;;;16.05;8.35;;;;;;;7.23;100.00;99508.80;1660210;84;21946;-82
2022/11/04 07:36:22;;;;;;;13.75;8.60;;;;;;;7.23;100.00;99514.27;1656764;85;21087;-76
2022/11/04 07:38:53;;;;;;;19.00;9.23;;;;;;;7.24;100.00;99514.53;1669373;85;21008;-82
2022/11/04 07:41:26;;;;;;;19.02;8.50;;;;;;;7.24;100.00;99513.71;1655123;85;21152;-83
2022/11/04 07:43:53;;;;;;;16.02;8.28;;;;;;;7.23;100.00;99514.27;1700832;83;20992;-83
2022/11/04 07:46:20;;;;;;;19.77;9.15;;;;;;;7.24;100.00;99514.53;1656946;85;21098;-86
2022/11/04 07:48:49;;;;;;;15.28;8.20;;;;;;;7.29;100.00;99510.36;1661459;84;21086;-75
2022/11/04 07:51:18;;;;;;;12.55;7.03;;;;;;;7.34;100.00;99506.75;1663814;85;21042;-75
2022/11/04 07:53:47;;;;;;;12.82;7.35;;;;;;;7.38;100.00;99509.14;1659615;84;21230;-84
2022/11/04 07:56:14;;;;;;;16.42;9.35;;;;;;;7.44;100.00;99515.34;1699919;83;21003;-83
2022/11/04 07:58:46;;;;;;;14.58;8.30;;;;;;;7.49;100.00;99517.45;1657758;85;21051;-83
2022/11/04 08:01:15;;;;;;;15.35;8.50;;;;;;;7.55;100.00;99518.16;1661624;85;20968;-83
2022/11/04 08:03:42;;;;;;;12.60;8.08;;;;;;;7.58;100.00;99511.55;1663588;85;21104;-83
2022/11/04 08:06:13;;;;;;;20.40;9.85;;;;;;;7.62;100.00;99518.59;1660192;85;21136;-84
2022/11/04 08:08:42;;;;;;;14.87;9.13;;;;;;;7.63;100.00;99513.39;1644605;85;21010;-78
2022/11/04 08:11:15;;;;;;;17.00;9.10;;;;;;;7.68;100.00;99517.41;1657238;85;20994;-81
2022/11/04 08:13:42;;;;;;;13.45;8.38;;;;;;;7.69;100.00;99516.30;1703665;82;20908;-80
2022/11/04 08:16:13;;;;;;;16.05;8.35;;;;;;;7.70;100.00;99522.02;1696737;83;21013;-77
2022/11/04 08:18:42;;;;;;;15.43;7.78;;;;;;;7.73;100.00;99514.59;1654847;84;21143;-80
2022/11/04 08:21:09;;;;;;;12.95;7.20;;;;;;;7.74;100.00;99516.22;1661265;85;21121;-82
2022/11/04 08:23:37;;;;;;;18.98;8.00;;;;;;;7.73;100.00;99517.33;1660926;84;21280;-83
2022/11/04 08:26:10;;;;;;;23.77;11.50;;;;;;;7.75;100.00;99522.50;1664405;85;21066;-84
2022/11/04 08:28:37;;;;;;;16.70;7.95;;;;;;;7.77;100.00;99522.45;1667808;84;21031;-84
2022/11/04 08:31:15;;;;;;;12.60;8.03;;;;;;;7.82;100.00;99522.38;1644009;84;21883;-85
2022/11/04 08:33:43;;;;;;;14.45;7.45;;;;;;;7.82;100.00;99524.30;1642541;86;21581;-84
2022/11/04 08:36:14;;;;;;;19.70;8.75;;;;;;;7.78;100.00;99519.98;1646735;86;21052;-89
2022/11/04 08:38:41;;;;;;;16.48;8.18;;;;;;;7.77;100.00;99519.72;1660557;84;21105;-82
2022/11/04 08:41:08;;;;;;;12.63;7.15;;;;;;;7.77;100.00;99521.09;1644593;86;21491;-84
2022/11/04 08:43:36;;;;;;;23.07;9.40;;;;;;;7.71;100.00;99519.55;1659605;85;22018;-87
2022/11/04 08:46:05;;;;;;;11.90;7.28;;;;;;;7.63;100.00;99528.41;1656403;85;21012;-84
2022/11/04 08:48:33;;;;;;;14.63;8.43;;;;;;;7.63;100.00;99526.49;1657874;84;21074;-83
2022/11/04 08:51:00;;;;;;;15.60;8.18;;;;;;;7.65;100.00;99518.55;1659808;85;21011;-86
2022/11/04 08:53:27;;;;;;;13.25;6.90;;;;;;;7.67;100.00;99524.53;1658474;85;21077;-86
2022/11/04 08:55:53;;;;;;;15.78;6.92;;;;;;;7.71;100.00;99519.55;1664170;85;21150;-82
2022/11/04 08:58:21;;;;;;;16.23;7.83;;;;;;;7.75;100.00;99517.84;1691587;83;20958;-82
2022/11/04 09:00:48;;;;;;;11.90;7.30;;;;;;;7.80;100.00;99516.95;1696658;83;21043;-85
2022/11/04 09:03:15;;;;;;;13.60;7.72;;;;;;;7.86;100.00;99515.20;1691197;83;21419;-89
2022/11/04 09:05:46;;;;;;;18.10;8.05;;;;;;;7.90;100.00;99514.05;1691395;83;20974;-86
2022/11/04 09:08:15;;;;;;;15.93;7.85;;;;;;;7.90;100.00;99507.22;1688149;84;21285;-84
2022/11/04 09:10:44;;;;;;;13.18;8.15;;;;;;;7.90;100.00;99511.32;1664542;84;20941;-83
2022/11/04 09:13:11;;;;;;;12.30;7.50;;;;;;;7.89;100.00;99511.88;1631217;86;20923;-84
2022/11/04 09:15:37;;;;;;;13.00;7.45;;;;;;;7.87;100.00;99512.73;1672738;85;21022;-84
2022/11/04 09:18:04;;;;;;;13.18;7.55;;;;;;;7.88;100.00;99510.81;1678184;84;21581;-81
2022/11/04 09:20:32;;;;;;;14.53;7.92;;;;;;;7.89;100.00;99509.14;1663302;84;21155;-87
2022/11/04 09:22:59;;;;;;;14.13;7.37;;;;;;;7.93;100.00;99508.80;1667879;83;21022;-78
2022/11/04 09:25:26;;;;;;;11.93;7.53;;;;;;;7.92;100.00;99509.91;1661459;84;21627;-80
2022/11/04 09:27:52;;;;;;;11.83;6.67;;;;;;;7.89;100.00;99503.67;1645681;84;21091;-80
2022/11/04 09:30:18;;;;;;;16.00;8.43;;;;;;;7.86;100.00;99504.27;1623867;84;21083;-79
2022/11/04 09:32:46;;;;;;;15.65;8.00;;;;;;;7.83;100.00;99500.77;1640831;84;21689;-79
2022/11/04 09:35:15;;;;;;;17.52;9.15;;;;;;;7.81;100.00;99502.98;1642448;84;21443;-80
2022/11/04 09:37:43;;;;;;;14.23;8.95;;;;;;;7.81;100.00;99498.89;1639333;86;20923;-80
2022/11/04 09:40:22;;;;;;;16.75;9.80;;;;;;;7.84;100.00;99496.11;1629941;87;21067;-81
2022/11/04 09:43:32;;;;;;;15.68;8.15;;;;;;;7.88;100.00;99498.51;1690666;84;21045;-86
2022/11/04 09:45:59;;;;;;;17.05;7.62;;;;;;;7.91;100.00;99491.89;1690463;83;21239;-87
2022/11/04 09:48:47;;;;;;;15.43;8.30;;;;;;;7.93;100.00;99488.30;1677625;84;21054;-87
2022/11/04 09:51:16;;;;;;;14.68;8.08;;;;;;;7.99;100.00;99486.84;1626799;84;21018;-83
2022/11/04 09:53:57;;;;;;;15.88;8.10;;;;;;;8.02;100.00;99486.25;1689027;83;20975;-88
2022/11/04 09:56:36;;;;;;;15.85;8.18;;;;;;;8.03;100.00;99481.84;1677494;85;21014;-84
2022/11/04 09:59:03;;;;;;;14.18;8.55;;;;;;;8.06;100.00;99481.80;1679759;84;21772;-83
2022/11/04 10:01:41;;;;;;;17.50;8.10;;;;;;;8.04;100.00;99485.39;1635914;86;20974;-83
2022/11/04 10:04:38;;;;;;;45.08;22.22;;;;;;;8.04;100.00;99482.11;1676170;84;20949;-84
2022/11/04 10:07:47;;;;;;;81.72;36.58;;;;;;;8.04;100.00;99486.77;1681244;84;20955;-83
2022/11/04 10:10:25;;;;;;;83.37;34.50;;;;;;;8.05;100.00;99485.09;1679977;84;20900;-80
2022/11/04 10:13:44;;;;;;;37.80;18.55;;;;;;;8.08;100.00;99474.11;1679258;85;21316;-79
2022/11/04 10:16:31;;;;;;;23.35;10.45;;;;;;;8.04;100.00;99473.91;1633430;86;21006;-86
2022/11/04 10:19:13;;;;;;;15.78;9.28;;;;;;;8.04;100.00;99469.80;1632269;86;21537;-86
2022/11/04 10:21:52;;;;;;;21.30;9.78;;;;;;;8.09;100.00;99468.87;1633335;86;20991;-86
2022/11/04 10:24:35;;;;;;;16.40;9.33;;;;;;;8.08;100.00;99468.64;1648068;84;21012;-83
2022/11/04 10:27:08;;;;;;;19.67;9.50;;;;;;;8.04;100.00;99462.16;1676601;85;21246;-82
2022/11/04 10:29:51;;;;;;;15.32;8.85;;;;;;;8.02;100.00;99454.25;1676921;85;24666;-83
2022/11/04 10:32:31;;;;;;;18.95;9.83;;;;;;;8.03;100.00;99460.53;1668866;85;21022;-78
2022/11/04 10:35:05;;;;;;;20.90;9.88;;;;;;;8.07;100.00;99462.37;1627922;86;21034;-87
2022/11/04 10:37:33;;;;;;;15.30;9.15;;;;;;;8.16;100.00;99459.16;1632417;87;21074;-84
2022/11/04 10:40:24;;;;;;;17.00;9.90;;;;;;;8.19;100.00;99462.66;1634455;86;21169;-79
2022/11/04 10:42:55;;;;;;;16.35;10.45;;;;;;;8.20;100.00;99458.00;1633562;86;21031;-86
2022/11/04 10:45:26;;;;;;;20.00;11.15;;;;;;;8.24;100.00;99453.55;1630400;86;20940;-85
2022/11/04 10:48:06;;;;;;;20.15;11.63;;;;;;;8.28;100.00;99453.20;1633715;86;21087;-81
2022/11/04 10:51:01;;;;;;;18.95;9.38;;;;;;;8.25;100.00;99460.09;1632098;86;20912;-85
2022/11/04 10:53:32;;;;;;;15.63;8.65;;;;;;;8.23;100.00;99452.73;1617431;87;21066;-76
2022/11/04 10:56:24;;;;;;;11.00;6.83;;;;;;;8.25;100.00;99448.34;1619448;86;21030;-86
2022/11/04 10:58:54;;;;;;;10.53;7.37;;;;;;;8.23;100.00;99447.27;1631158;86;20940;-86
2022/11/04 11:01:33;;;;;;;19.25;8.98;;;;;;;8.24;100.00;99448.89;1681945;82;20915;-85
2022/11/04 11:04:08;;;;;;;14.80;9.10;;;;;;;8.23;100.00;99445.09;1691149;83;21023;-82
2022/11/04 11:06:40;;;;;;;16.60;8.08;;;;;;;8.24;100.00;99442.05;1677617;85;21586;-80
2022/11/04 11:09:28;;;;;;;15.08;9.18;;;;;;;8.19;100.00;99441.34;1678439;84;20903;-84
2022/11/04 11:12:05;;;;;;;13.00;8.60;;;;;;;8.10;100.00;99450.80;1635050;84;21467;-85
2022/11/04 11:14:38;;;;;;;11.40;8.13;;;;;;;8.07;100.00;99453.35;1651114;86;20892;-82
2022/11/04 11:17:24;;;;;;;14.73;8.70;;;;;;;8.07;100.00;99450.62;1675882;84;20983;-84
2022/11/04 11:20:04;;;;;;;13.22;7.90;;;;;;;8.10;100.00;99447.25;1641384;86;21914;-84
2022/11/04 11:22:45;;;;;;;17.90;8.65;;;;;;;8.14;100.00;99448.27;1671423;85;20993;-84
2022/11/04 11:25:23;;;;;;;;;;;;;;;8.16;100.00;99441.94;1641583;85;21033;-89
2022/11/04 11:28:04;;;;;;;14.35;7.28;;;;;;;8.16;100.00;99435.92;1666533;85;20113;-87
2022/11/04 11:30:48;;;;;;;12.00;7.25;;;;;;;8.11;100.00;99439.30;1650732;85;20919;-89
2022/11/04 11:33:31;;;;;;;13.60;8.00;;;;;;;8.06;100.00;99442.97;1688969;83;21238;-76
2022/11/04 11:36:11;;;;;;;20.80;10.40;;;;;;;8.06;100.00;99438.88;1680573;83;20920;-77
2022/11/04 11:39:06;;;;;;;16.75;10.03;;;;;;;8.06;100.00;99438.88;1633546;85;20995;-77
2022/11/04 11:41:38;;;;;;;14.25;9.50;;;;;;;8.02;100.00;99435.12;1663231;85;20956;-78
2022/11/04 11:44:37;;;;;;;15.08;8.25;;;;;;;8.00;100.00;99433.80;1656561;85;21583;-77
2022/11/04 11:47:22;;;;;;;13.50;7.85;;;;;;;7.97;100.00;99435.21;1657469;85;21109;-76
2022/11/04 11:50:19;;;;;;;16.93;8.45;;;;;;;7.90;100.00;99429.33;1702605;83;20994;-75
2022/11/04 11:52:53;;;;;;;20.43;11.80;;;;;;;7.89;100.00;99423.05;1637793;86;20948;-80
2022/11/04 11:55:35;;;;;;;16.73;9.53;;;;;;;7.91;100.00;99425.48;1622238;86;20869;-86
2022/11/04 11:58:28;;;;;;;18.15;9.90;;;;;;;7.92;100.00;99421.64;1659692;85;20955;-79
2022/11/04 12:01:09;;;;;;;20.37;9.35;;;;;;;7.97;100.00;99420.73;1659192;85;21879;-78
2022/11/04 12:03:46;;;;;;;16.60;9.35;;;;;;;8.02;100.00;99413.80;1656794;85;21018;-78
2022/11/04 12:06:28;;;;;;;24.70;10.18;;;;;;;8.05;100.00;99410.47;1662563;85;21478;-82
2022/11/04 12:09:18;;;;;;;19.98;10.28;;;;;;;8.08;100.00;99413.41;1660383;85;21035;-80
2022/11/04 12:12:00;;;;;;;14.47;9.45;;;;;;;8.11;100.00;99410.59;1657690;85;21539;-80
2022/11/04 12:14:56;;;;;;;14.78;10.00;;;;;;;8.11;100.00;99415.51;1625451;85;20899;-83
2022/11/04 12:18:07;;;;;;;15.05;9.03;;;;;;;8.11;100.00;99409.23;1645162;86;21015;-80
2022/11/04 12:21:02;;;;;;;17.82;9.08;;;;;;;8.09;100.00;99405.98;1634447;85;20960;-81